Time;durP1;ratioP1;P1;durP2;ratioP2;P2;SDS_P1;SDS_P2;PMS_P1;PMS_P2;Temp;Humidity;BMP_temperature;BMP_pressure;BME280_temperature;BME280_humidity;BME280_pressure;Samples;Min_cycle;Max_cycle;Signal;HPM_P1;HPM_P2
2023/04/02 00:02:19;;;;;;;1.67;0.88;;;;;;;6.43;100.00;94708.47;5040760;28;20428;-73
2023/04/02 00:05:33;;;;;;;0.97;0.67;;;;;;;6.36;100.00;94703.50;5040387;28;20099;-73
2023/04/02 00:08:24;;;;;;;2.55;0.70;;;;;;;6.34;100.00;94706.38;5043592;28;20297;-73
2023/04/02 00:10:57;;;;;;;1.05;0.55;;;;;;;6.39;100.00;94714.22;5032893;28;20042;-73
2023/04/02 00:13:22;;;;;;;1.25;0.80;;;;;;;6.33;100.00;94709.25;5035079;28;20045;-73
2023/04/02 00:15:50;;;;;;;0.43;0.43;;;;;;;6.44;100.00;94705.59;5034829;28;20033;-72
2023/04/02 00:18:18;;;;;;;2.15;0.80;;;;;;;6.34;100.00;94716.06;5033199;28;20095;-72
2023/04/02 00:21:08;;;;;;;0.82;0.68;;;;;;;6.29;100.00;94714.22;5038220;28;20052;-73
2023/04/02 00:23:37;;;;;;;2.50;1.13;;;;;;;6.22;100.00;94713.69;5040036;28;20118;-72
2023/04/02 00:26:20;;;;;;;1.00;0.80;;;;;;;6.21;100.00;94712.91;5038934;28;20046;-73
2023/04/02 00:28:46;;;;;;;1.55;1.15;;;;;;;6.20;100.00;94715.78;5030368;28;20041;-73
2023/04/02 00:31:12;;;;;;;1.25;0.73;;;;;;;6.16;100.00;94719.97;5032691;28;20050;-73
2023/04/02 00:33:38;;;;;;;0.50;0.50;;;;;;;6.20;100.00;94721.00;5034781;28;20040;-73
2023/04/02 00:36:07;;;;;;;0.60;0.60;;;;;;;6.20;100.00;94715.78;5049539;28;20516;-73
2023/04/02 00:38:34;;;;;;;2.55;0.70;;;;;;;6.12;100.00;94724.13;5047158;28;20037;-73
2023/04/02 00:41:06;;;;;;;0.35;0.35;;;;;;;6.13;100.00;94717.88;5042507;28;20475;-74
2023/04/02 00:43:35;;;;;;;1.85;0.75;;;;;;;6.07;100.00;94717.84;5037854;28;21794;-73
2023/04/02 00:46:09;;;;;;;1.00;0.80;;;;;;;6.10;100.00;94726.22;5031966;28;20532;-73
2023/04/02 00:48:53;;;;;;;1.40;0.80;;;;;;;6.18;100.00;94729.13;5034675;28;20049;-73
2023/04/02 00:51:24;;;;;;;1.92;0.80;;;;;;;6.14;100.00;94724.69;5032534;28;20045;-72
2023/04/02 00:53:53;;;;;;;1.15;0.80;;;;;;;6.12;100.00;94724.94;5034413;28;20072;-73
2023/04/02 00:56:42;;;;;;;1.65;0.70;;;;;;;6.04;100.00;94726.22;5041867;28;20049;-73
2023/04/02 00:59:19;;;;;;;2.17;0.80;;;;;;;6.10;100.00;94726.22;5038763;28;20051;-73
2023/04/02 01:01:52;;;;;;;1.77;0.60;;;;;;;6.13;100.00;94730.94;5036332;28;20045;-73
2023/04/02 01:04:33;;;;;;;1.35;0.50;;;;;;;6.10;100.00;94731.47;5035996;28;20451;-73
2023/04/02 01:07:05;;;;;;;0.43;0.43;;;;;;;6.14;100.00;94729.91;5036851;28;20046;-73
2023/04/02 01:09:45;;;;;;;0.68;0.50;;;;;;;6.16;100.00;94730.41;5031987;28;20033;-73
2023/04/02 01:12:28;;;;;;;0.82;0.73;;;;;;;6.19;100.00;94730.69;5042721;28;20037;-73
2023/04/02 01:15:09;;;;;;;1.05;0.77;;;;;;;6.22;100.00;94734.59;5037428;28;20112;-73
2023/04/02 01:17:45;;;;;;;2.92;0.93;;;;;;;6.17;100.00;94729.38;5042254;28;20037;-73
2023/04/02 01:20:31;;;;;;;1.40;0.60;;;;;;;6.15;100.00;94734.06;5031455;28;20728;-73
2023/04/02 01:23:06;;;;;;;1.52;0.80;;;;;;;6.20;100.00;94731.47;5038764;28;20099;-73
2023/04/02 01:25:44;;;;;;;1.08;0.70;;;;;;;6.11;100.00;94738.25;5038138;28;20116;-73
2023/04/02 01:28:18;;;;;;;1.13;0.50;;;;;;;6.12;100.00;94734.59;5037154;28;20045;-73
2023/04/02 01:30:48;;;;;;;1.00;0.50;;;;;;;6.14;100.00;94737.75;5030827;28;20041;-73
2023/04/02 01:33:14;;;;;;;0.68;0.60;;;;;;;6.16;100.00;94735.63;5043817;28;20525;-73
2023/04/02 01:35:44;;;;;;;1.85;0.98;;;;;;;6.12;100.00;94745.03;5038065;28;20056;-73
2023/04/02 01:38:20;;;;;;;1.23;0.60;;;;;;;6.09;100.00;94740.31;5037417;28;20052;-73
2023/04/02 01:41:15;;;;;;;2.28;0.80;;;;;;;6.12;100.00;94740.63;5031802;28;20056;-73
2023/04/02 01:43:45;;;;;;;;;;;;;;;6.09;100.00;94741.09;5042153;28;20091;-74
2023/04/02 01:46:27;;;;;;;1.50;0.82;;;;;;;6.07;100.00;94738.75;5033295;28;19925;-73
2023/04/02 01:48:54;;;;;;;0.82;0.80;;;;;;;6.12;100.00;94751.06;5031034;28;20034;-74
2023/04/02 01:51:31;;;;;;;1.35;0.70;;;;;;;6.11;100.00;94748.72;5035662;28;20049;-73
2023/04/02 01:54:00;;;;;;;1.02;0.60;;;;;;;6.09;100.00;94753.38;5036281;28;20064;-74
2023/04/02 01:56:27;;;;;;;2.65;1.00;;;;;;;6.06;100.00;94752.88;5030761;28;20040;-74
2023/04/02 01:58:54;;;;;;;0.50;0.50;;;;;;;6.05;100.00;94756.53;5031311;28;20045;-73
2023/04/02 02:01:24;;;;;;;4.82;0.82;;;;;;;6.06;100.00;94758.09;5040851;28;20084;-73
2023/04/02 02:03:51;;;;;;;1.80;0.73;;;;;;;6.07;100.00;94764.88;5033940;28;20041;-73
2023/04/02 02:06:17;;;;;;;1.73;1.00;;;;;;;6.07;100.00;94758.88;5034328;28;20044;-73
2023/04/02 02:08:55;;;;;;;1.30;0.70;;;;;;;6.06;100.00;94768.56;5038462;28;20052;-73
2023/04/02 02:11:25;;;;;;;2.85;0.80;;;;;;;6.06;100.00;94763.31;5045834;28;20057;-73
2023/04/02 02:14:00;;;;;;;1.33;0.65;;;;;;;5.98;100.00;94771.66;5038092;28;20540;-73
2023/04/02 02:16:28;;;;;;;2.28;0.60;;;;;;;5.91;100.00;94771.09;5036584;28;20038;-73
2023/04/02 02:19:00;;;;;;;1.02;0.70;;;;;;;6.00;100.00;94769.56;5038334;28;20037;-73
2023/04/02 02:21:51;;;;;;;1.77;0.55;;;;;;;6.04;100.00;94769.84;5036619;28;20037;-73
2023/04/02 02:24:23;;;;;;;2.15;0.90;;;;;;;5.98;100.00;94770.88;5034545;28;20061;-73
2023/04/02 02:26:58;;;;;;;2.28;1.05;;;;;;;5.98;100.00;94769.03;5030836;28;20049;-73
2023/04/02 02:29:27;;;;;;;2.92;1.10;;;;;;;6.03;100.00;94773.50;5032647;28;20053;-73
2023/04/02 02:31:55;;;;;;;1.23;0.65;;;;;;;6.03;100.00;94774.28;5031033;28;20076;-73
2023/04/02 02:34:28;;;;;;;1.40;0.80;;;;;;;6.03;100.00;94779.53;5040143;28;20413;-73
2023/04/02 02:37:26;;;;;;;1.65;0.55;;;;;;;6.07;100.00;94785.78;5033926;28;20155;-73
2023/04/02 02:39:56;;;;;;;1.23;0.63;;;;;;;6.03;100.00;94789.16;5031153;28;20138;-72
2023/04/02 02:42:34;;;;;;;0.55;0.55;;;;;;;5.99;100.00;94788.91;5036983;28;20040;-73
2023/04/02 02:45:03;;;;;;;1.58;0.82;;;;;;;6.03;100.00;94784.75;5035837;28;20389;-73
2023/04/02 02:47:33;;;;;;;1.05;0.60;;;;;;;6.00;100.00;94789.69;5032063;28;20046;-73
2023/04/02 02:50:03;;;;;;;1.90;0.88;;;;;;;5.99;100.00;94799.34;5043101;28;20056;-73
2023/04/02 02:52:34;;;;;;;3.63;0.80;;;;;;;6.01;100.00;94789.44;5048102;28;20048;-73
2023/04/02 02:55:07;;;;;;;1.90;0.55;;;;;;;6.02;100.00;94790.19;5037189;28;20041;-73
2023/04/02 02:57:39;;;;;;;0.98;0.80;;;;;;;6.03;100.00;94797.81;5035613;28;20072;-73
2023/04/02 03:00:08;;;;;;;0.70;0.70;;;;;;;6.05;100.00;94798.31;5039888;28;20044;-72
2023/04/02 03:02:37;;;;;;;1.73;0.77;;;;;;;6.01;100.00;94802.47;5036038;28;20033;-72
2023/04/02 03:05:04;;;;;;;0.73;0.70;;;;;;;6.06;100.00;94805.13;5036772;28;20037;-72
2023/04/02 03:07:30;;;;;;;2.38;0.90;;;;;;;6.07;100.00;94811.13;5034073;28;20045;-73
2023/04/02 03:10:11;;;;;;;1.40;0.88;;;;;;;6.00;100.00;94811.34;5037548;28;20042;-73
2023/04/02 03:13:07;;;;;;;1.85;1.10;;;;;;;5.98;100.00;94808.22;5034992;28;20128;-72
2023/04/02 03:15:42;;;;;;;2.22;1.00;;;;;;;5.98;100.00;94810.84;5037918;28;20041;-73
2023/04/02 03:18:13;;;;;;;;;;;;;;;5.98;100.00;94812.69;5041659;28;22413;-73
2023/04/02 03:20:49;;;;;;;1.02;0.63;;;;;;;6.03;100.00;94821.31;5033320;28;19921;-72
2023/04/02 03:23:20;;;;;;;1.55;0.70;;;;;;;5.95;100.00;94803.50;5037028;28;20556;-73
2023/04/02 03:26:16;;;;;;;0.98;0.70;;;;;;;5.98;100.00;94813.44;5035798;28;20083;-73
2023/04/02 03:28:58;;;;;;;1.02;0.63;;;;;;;5.97;100.00;94819.72;5044345;28;20040;-73
2023/04/02 03:31:43;;;;;;;1.33;0.73;;;;;;;5.94;100.00;94822.81;5046143;28;20037;-73
2023/04/02 03:34:08;;;;;;;;;;;;;;;5.94;100.00;94827.25;5037852;28;20165;-72
2023/04/02 03:36:42;;;;;;;2.35;0.88;;;;;;;5.90;100.00;94819.13;5042350;28;19925;-71
2023/04/02 03:39:07;;;;;;;0.93;0.57;;;;;;;5.96;100.00;94831.19;5065620;28;20055;-73
2023/04/02 03:41:44;;;;;;;0.68;0.65;;;;;;;5.97;100.00;94824.94;5064433;28;20029;-72
2023/04/02 03:44:34;;;;;;;1.15;0.77;;;;;;;5.95;100.00;94831.41;5060705;28;20041;-72
2023/04/02 03:47:27;;;;;;;0.95;0.80;;;;;;;5.95;100.00;94834.81;5062071;28;20037;-72
2023/04/02 03:49:59;;;;;;;2.85;0.90;;;;;;;5.89;100.00;94841.09;5065059;28;20064;-72
2023/04/02 03:52:27;;;;;;;1.17;1.05;;;;;;;5.88;100.00;94839.50;5058332;28;20026;-72
2023/04/02 03:54:55;;;;;;;0.88;0.70;;;;;;;5.95;100.00;94845.28;5070190;28;20032;-72
2023/04/02 03:57:33;;;;;;;4.32;0.68;;;;;;;5.92;100.00;94840.56;5046682;28;20033;-72
2023/04/02 04:00:19;;;;;;;2.05;0.90;;;;;;;5.94;100.00;94841.09;5033737;28;20508;-73
2023/04/02 04:02:51;;;;;;;1.42;0.80;;;;;;;5.93;100.00;94846.56;5033010;28;20037;-73
2023/04/02 04:05:25;;;;;;;1.58;0.93;;;;;;;5.91;100.00;94846.81;5042220;28;20070;-72
2023/04/02 04:07:52;;;;;;;;;;;;;;;5.92;100.00;94851.00;5039648;28;20044;-73
2023/04/02 04:10:24;;;;;;;0.80;0.60;;;;;;;5.91;100.00;94849.44;5035377;28;20537;-73
2023/04/02 04:12:53;;;;;;;0.90;0.57;;;;;;;5.88;100.00;94858.56;5033822;28;20456;-73
2023/04/02 04:15:24;;;;;;;1.95;0.77;;;;;;;5.94;100.00;94861.19;5042304;28;20047;-73
2023/04/02 04:18:03;;;;;;;2.45;0.95;;;;;;;5.87;100.00;94864.03;5031991;28;20046;-73
2023/04/02 04:20:44;;;;;;;2.00;0.60;;;;;;;5.85;100.00;94855.69;5041303;28;20045;-73
2023/04/02 04:23:18;;;;;;;1.42;0.80;;;;;;;5.87;100.00;94864.81;5035263;28;20040;-72
2023/04/02 04:25:44;;;;;;;3.93;0.80;;;;;;;5.84;100.00;94861.94;5035163;28;20045;-73
2023/04/02 04:28:45;;;;;;;1.17;0.80;;;;;;;5.82;100.00;94861.41;5037816;28;20076;-74
2023/04/02 04:31:25;;;;;;;2.05;0.65;;;;;;;5.69;100.00;94858.22;5031039;28;20033;-73
2023/04/02 04:34:04;;;;;;;0.75;0.70;;;;;;;5.78;100.00;94881.25;5034839;28;20068;-73
2023/04/02 04:36:40;;;;;;;0.85;0.77;;;;;;;5.75;100.00;94881.72;5037677;28;20121;-73
2023/04/02 04:39:15;;;;;;;1.35;0.70;;;;;;;5.76;100.00;94888.53;5038409;28;20551;-73
2023/04/02 04:41:42;;;;;;;3.33;0.98;;;;;;;5.71;100.00;94887.47;5042326;28;20045;-73
2023/04/02 04:44:43;;;;;;;1.75;0.93;;;;;;;5.72;100.00;94888.25;5038966;28;20044;-73
2023/04/02 04:47:23;;;;;;;1.48;0.80;;;;;;;5.69;100.00;94889.56;5045241;28;20073;-73
2023/04/02 04:50:10;;;;;;;0.93;0.63;;;;;;;5.68;100.00;94893.19;5031845;28;20038;-73
2023/04/02 04:52:38;;;;;;;5.22;1.10;;;;;;;5.70;100.00;94895.53;5034203;28;20055;-73
2023/04/02 04:55:29;;;;;;;1.58;0.80;;;;;;;5.69;100.00;94904.44;5048288;28;20095;-73
2023/04/02 04:58:02;;;;;;;0.70;0.70;;;;;;;5.71;100.00;94908.34;5041899;28;20048;-73
2023/04/02 05:01:00;;;;;;;2.40;0.82;;;;;;;5.62;100.00;94909.88;5042332;28;20094;-73
2023/04/02 05:03:34;;;;;;;1.38;0.80;;;;;;;5.62;100.00;94917.72;5042007;28;20075;-73
2023/04/02 05:06:44;;;;;;;1.58;0.70;;;;;;;5.63;100.00;94914.06;5043405;28;20110;-73
2023/04/02 05:09:19;;;;;;;2.88;0.80;;;;;;;5.62;100.00;94914.31;5025400;28;20068;-72
2023/04/02 05:11:51;;;;;;;1.63;0.70;;;;;;;5.62;100.00;94930.75;5053950;28;20120;-74
2023/04/02 05:14:28;;;;;;;0.98;0.68;;;;;;;5.62;100.00;94935.19;5042220;28;20516;-73
2023/04/02 05:16:59;;;;;;;2.47;0.75;;;;;;;5.60;100.00;94932.81;5031942;28;20528;-74
2023/04/02 05:19:35;;;;;;;2.30;1.13;;;;;;;5.58;100.00;94937.50;5042247;28;20041;-74
2023/04/02 05:22:22;;;;;;;1.38;0.73;;;;;;;5.61;100.00;94937.00;5036944;28;20057;-73
2023/04/02 05:25:10;;;;;;;0.70;0.52;;;;;;;5.59;100.00;94936.47;5036114;28;20033;-74
2023/04/02 05:28:02;;;;;;;1.85;1.05;;;;;;;5.66;100.00;94939.66;5041964;28;20397;-73
2023/04/02 05:30:28;;;;;;;2.17;1.17;;;;;;;5.65;100.00;94951.13;5030087;28;20044;-74
2023/04/02 05:33:03;;;;;;;0.90;0.82;;;;;;;5.63;100.00;94945.38;5036580;28;20046;-74
2023/04/02 05:35:34;;;;;;;1.52;0.80;;;;;;;5.63;100.00;94953.22;5036454;28;20520;-73
2023/04/02 05:38:00;;;;;;;1.15;0.80;;;;;;;5.60;100.00;94952.91;5035518;28;20437;-75
2023/04/02 05:40:41;;;;;;;1.48;0.82;;;;;;;5.66;100.00;94960.53;5053089;28;20045;-73
2023/04/02 05:43:09;;;;;;;2.60;1.00;;;;;;;5.70;100.00;94959.00;5040911;28;20038;-73
2023/04/02 05:45:38;;;;;;;1.00;0.88;;;;;;;5.74;100.00;94964.50;5030976;28;20065;-78
2023/04/02 05:48:25;;;;;;;0.90;0.77;;;;;;;5.75;100.00;94967.88;5031604;28;20037;-72
2023/04/02 05:50:53;;;;;;;1.40;1.00;;;;;;;5.77;100.00;94977.03;5039577;28;20045;-72
2023/04/02 05:53:27;;;;;;;2.90;1.10;;;;;;;5.78;100.00;94975.25;5034357;28;20045;-71
2023/04/02 05:55:58;;;;;;;0.95;0.80;;;;;;;5.73;100.00;94976.78;5038302;28;20041;-73
2023/04/02 05:58:37;;;;;;;1.63;1.10;;;;;;;5.76;100.00;94978.09;5043458;28;20091;-75
2023/04/02 06:01:11;;;;;;;3.25;1.13;;;;;;;5.71;100.00;94986.66;5032203;28;20045;-76
2023/04/02 06:03:45;;;;;;;0.88;0.70;;;;;;;5.68;100.00;94987.19;5031702;28;20099;-75
2023/04/02 06:06:43;;;;;;;2.47;1.02;;;;;;;5.72;100.00;94983.03;5042115;28;20063;-75
2023/04/02 06:09:36;;;;;;;1.75;0.88;;;;;;;5.73;100.00;94976.78;5033151;28;20508;-75
2023/04/02 06:12:27;;;;;;;1.60;0.88;;;;;;;5.72;100.00;94982.25;5031907;28;20069;-75
2023/04/02 06:14:53;;;;;;;1.80;0.98;;;;;;;5.75;100.00;94992.19;5031479;28;20045;-76
2023/04/02 06:17:20;;;;;;;1.10;0.90;;;;;;;5.82;100.00;94991.94;5036442;28;20052;-75
2023/04/02 06:19:46;;;;;;;3.03;1.02;;;;;;;5.82;100.00;94999.78;5031802;28;20045;-75
2023/04/02 06:22:20;;;;;;;1.73;0.93;;;;;;;5.83;100.00;94993.53;5036649;28;20076;-76
2023/04/02 06:24:50;;;;;;;1.48;1.10;;;;;;;5.85;100.00;94991.47;5041807;28;20033;-74
2023/04/02 06:27:21;;;;;;;2.92;1.13;;;;;;;5.89;100.00;94998.56;5032413;28;20585;-76
2023/04/02 06:29:51;;;;;;;4.00;1.25;;;;;;;5.87;100.00;94999.84;5039319;28;20045;-75
2023/04/02 06:32:21;;;;;;;2.53;1.00;;;;;;;5.86;100.00;94998.25;5030717;28;20037;-74
2023/04/02 06:34:47;;;;;;;1.33;0.98;;;;;;;5.93;100.00;95004.03;5027133;28;20038;-73
2023/04/02 06:37:20;;;;;;;1.58;1.13;;;;;;;5.92;100.00;95002.50;5031421;28;20081;-74
2023/04/02 06:39:46;;;;;;;2.13;1.20;;;;;;;6.01;100.00;95006.22;5044819;28;20037;-73
2023/04/02 06:42:29;;;;;;;2.25;1.15;;;;;;;5.94;100.00;95005.63;5030929;28;20045;-75
2023/04/02 06:44:55;;;;;;;1.42;1.05;;;;;;;6.01;100.00;95015.88;5035149;28;20041;-72
2023/04/02 06:47:33;;;;;;;3.63;1.13;;;;;;;6.11;100.00;95020.41;5032018;28;20056;-74
2023/04/02 06:50:30;;;;;;;3.88;1.30;;;;;;;6.11;100.00;95020.41;5039206;28;20046;-73
2023/04/02 06:53:03;;;;;;;1.60;1.00;;;;;;;6.03;100.00;95030.28;5040116;28;20083;-72
2023/04/02 06:55:55;;;;;;;3.85;1.02;;;;;;;6.12;100.00;95032.41;5042207;28;20154;-72
2023/04/02 06:58:20;;;;;;;2.47;0.82;;;;;;;6.17;100.00;95029.81;5030735;28;20409;-75
2023/04/02 07:00:48;;;;;;;2.53;1.10;;;;;;;6.22;100.00;95033.25;5047596;28;20086;-73
2023/04/02 07:03:26;;;;;;;1.48;1.15;;;;;;;6.22;100.00;95035.06;5030919;28;20195;-74
2023/04/02 07:05:52;;;;;;;3.47;1.20;;;;;;;6.20;100.00;95042.38;5034687;28;20037;-74
2023/04/02 07:08:18;;;;;;;2.85;0.98;;;;;;;6.22;100.00;95033.25;5045971;28;20454;-75
2023/04/02 07:10:45;;;;;;;3.28;1.40;;;;;;;6.24;100.00;95051.28;5033205;28;20111;-75
2023/04/02 07:13:15;;;;;;;2.30;1.08;;;;;;;6.36;100.00;95049.25;5029879;28;20519;-77
2023/04/02 07:15:43;;;;;;;2.35;1.17;;;;;;;6.47;100.00;95051.94;5036039;28;20033;-73
2023/04/02 07:18:29;;;;;;;2.38;1.05;;;;;;;6.58;100.00;95061.41;5040168;28;20048;-73
2023/04/02 07:20:55;;;;;;;4.47;1.40;;;;;;;6.57;100.00;95059.81;5047799;28;20044;-72
2023/04/02 07:23:21;;;;;;;1.63;1.17;;;;;;;6.58;100.00;95061.41;5045870;28;20037;-73
2023/04/02 07:25:51;;;;;;;2.30;1.20;;;;;;;6.71;100.00;95063.56;5038155;28;20041;-73
2023/04/02 07:28:18;;;;;;;2.60;1.27;;;;;;;6.74;100.00;95064.88;5053627;28;20117;-73
2023/04/02 07:30:44;;;;;;;3.40;1.75;;;;;;;6.80;100.00;95065.69;5033458;28;20041;-73
2023/04/02 07:33:12;;;;;;;6.22;3.75;;;;;;;6.78;100.00;95065.13;5036291;28;20420;-73
2023/04/02 07:35:39;;;;;;;2.22;1.50;;;;;;;6.96;100.00;95072.53;5035930;28;20409;-71
2023/04/02 07:38:05;;;;;;;3.92;2.90;;;;;;;6.91;100.00;95070.69;5052795;28;20460;-74
2023/04/02 07:40:30;;;;;;;3.03;1.17;;;;;;;7.13;100.00;95071.56;5037075;28;20075;-74
2023/04/02 07:42:56;;;;;;;2.67;1.40;;;;;;;7.10;100.00;95084.09;5030569;28;20487;-73
2023/04/02 07:45:21;;;;;;;1.45;1.10;;;;;;;7.17;100.00;95080.44;5032218;28;20124;-74
2023/04/02 07:47:47;;;;;;;3.35;1.50;;;;;;;7.14;100.00;95083.56;5043964;28;20412;-74
2023/04/02 07:50:13;;;;;;;4.00;1.70;;;;;;;7.08;100.00;95086.19;5043283;28;20501;-72
2023/04/02 07:52:41;;;;;;;3.00;1.50;;;;;;;7.00;100.00;95097.13;5034546;28;20095;-73
2023/04/02 07:55:12;;;;;;;1.85;1.30;;;;;;;7.15;100.00;95093.00;5036384;28;20075;-73
2023/04/02 07:57:40;;;;;;;1.70;1.27;;;;;;;7.24;100.00;95101.91;5041069;28;20037;-73
2023/04/02 08:00:10;;;;;;;5.40;1.80;;;;;;;7.36;100.00;95097.25;5038994;28;20091;-72
2023/04/02 08:02:36;;;;;;;4.55;1.70;;;;;;;7.30;100.00;95098.28;5038941;28;20087;-72
2023/04/02 08:05:02;;;;;;;3.92;1.60;;;;;;;7.30;100.00;95103.53;5039549;28;20049;-72
2023/04/02 08:07:27;;;;;;;3.90;1.30;;;;;;;7.35;100.00;95106.13;5032858;28;20127;-72
2023/04/02 08:09:53;;;;;;;1.55;1.10;;;;;;;7.27;100.00;95110.06;5034003;28;20053;-72
2023/04/02 08:12:18;;;;;;;3.17;1.40;;;;;;;7.36;100.00;95112.94;5041936;28;20037;-73
2023/04/02 08:14:44;;;;;;;4.18;1.50;;;;;;;7.39;100.00;95109.81;5033024;28;20037;-73
2023/04/02 08:17:10;;;;;;;4.90;1.40;;;;;;;7.50;100.00;95117.69;5045201;28;20091;-73
2023/04/02 08:19:36;;;;;;;2.65;1.50;;;;;;;7.79;100.00;95121.41;5034437;28;20044;-73
2023/04/02 08:22:01;;;;;;;4.10;1.48;;;;;;;7.88;100.00;95115.66;5033097;28;20125;-73
2023/04/02 08:24:27;;;;;;;1.88;1.35;;;;;;;7.90;100.00;95116.16;5032145;28;20138;-72
2023/04/02 08:26:53;;;;;;;2.92;1.30;;;;;;;7.95;100.00;95119.56;5038382;28;20470;-73
2023/04/02 08:29:20;;;;;;;3.08;1.20;;;;;;;7.77;100.00;95117.47;5045914;28;20120;-73
2023/04/02 08:31:45;;;;;;;3.47;1.30;;;;;;;8.18;100.00;95114.09;5033136;28;20044;-73
2023/04/02 08:34:11;;;;;;;3.65;1.17;;;;;;;8.25;100.00;95117.22;5036008;28;20037;-73
2023/04/02 08:36:40;;;;;;;4.15;1.30;;;;;;;8.30;100.00;95127.69;5034002;28;20140;-73
2023/04/02 08:39:10;;;;;;;3.65;1.20;;;;;;;8.41;100.00;95116.13;5045490;28;20043;-73
2023/04/02 08:41:43;;;;;;;3.10;1.30;;;;;;;8.57;100.00;95121.41;5048619;28;20121;-73
2023/04/02 08:44:14;;;;;;;2.13;1.35;;;;;;;8.39;100.00;95120.88;5043297;28;20059;-73
2023/04/02 08:46:50;;;;;;;3.10;1.45;;;;;;;8.07;100.00;95137.66;5037086;28;20075;-73
2023/04/02 08:49:30;;;;;;;4.75;1.30;;;;;;;8.17;100.00;95142.09;5032049;28;20041;-73
2023/04/02 08:51:55;;;;;;;2.88;1.17;;;;;;;8.33;100.00;95132.41;5037721;28;20064;-73
2023/04/02 08:54:24;;;;;;;3.28;1.20;;;;;;;8.45;100.00;95137.41;5032807;28;20045;-73
2023/04/02 08:57:15;;;;;;;2.03;1.17;;;;;;;8.47;100.00;95135.31;5032214;28;20115;-73
2023/04/02 08:59:43;;;;;;;3.50;1.30;;;;;;;8.51;100.00;95140.81;5040393;28;20087;-74
2023/04/02 09:02:46;;;;;;;2.42;1.20;;;;;;;8.37;100.00;95143.16;5047319;28;20045;-74
2023/04/02 09:05:28;;;;;;;4.68;1.38;;;;;;;8.64;100.00;95150.75;5043133;28;20509;-72
2023/04/02 09:07:57;;;;;;;1.90;1.17;;;;;;;8.37;100.00;95146.56;5031501;28;20033;-73
2023/04/02 09:10:40;;;;;;;5.18;1.48;;;;;;;8.22;100.00;95151.84;5031597;28;20096;-72
2023/04/02 09:13:19;;;;;;;2.08;1.30;;;;;;;8.55;100.00;95141.84;5045036;28;20045;-72
2023/04/02 09:15:45;;;;;;;4.32;2.03;;;;;;;8.60;100.00;95152.34;5036018;28;20041;-72
2023/04/02 09:18:16;;;;;;;3.92;1.40;;;;;;;8.56;100.00;95159.97;5032851;28;20033;-72
2023/04/02 09:20:42;;;;;;;3.10;1.35;;;;;;;9.14;100.00;95151.66;5039593;28;20049;-72
2023/04/02 09:23:17;;;;;;;2.28;1.20;;;;;;;9.00;100.00;95161.16;5038453;28;20037;-72
2023/04/02 09:25:46;;;;;;;1.52;1.10;;;;;;;9.08;100.00;95155.38;5045002;28;20040;-72
2023/04/02 09:28:13;;;;;;;0.98;0.90;;;;;;;8.96;100.00;95168.00;5031909;28;20049;-72
2023/04/02 09:30:55;;;;;;;3.90;1.23;;;;;;;9.36;100.00;95166.28;5034264;28;20516;-72
2023/04/02 09:33:49;;;;;;;2.97;1.00;;;;;;;9.18;100.00;95176.34;5039643;28;20507;-72
2023/04/02 09:36:27;;;;;;;2.45;1.15;;;;;;;9.50;100.00;95177.78;5045357;28;20493;-72
2023/04/02 09:39:17;;;;;;;3.03;1.40;;;;;;;9.41;100.00;95179.41;5032088;28;20037;-72
2023/04/02 09:41:45;;;;;;;2.60;1.17;;;;;;;9.65;100.00;95176.91;5044947;28;20049;-73
2023/04/02 09:44:11;;;;;;;2.20;1.05;;;;;;;9.76;100.00;95175.00;5046757;28;20037;-73
2023/04/02 09:46:36;;;;;;;1.90;0.90;;;;;;;9.60;100.00;95186.66;5037690;28;20072;-72
2023/04/02 09:49:02;;;;;;;2.58;1.30;;;;;;;9.52;100.00;95185.38;5032846;28;20041;-72
2023/04/02 09:51:33;;;;;;;6.90;2.00;;;;;;;9.47;100.00;95178.31;5035537;28;20045;-73
2023/04/02 09:54:02;;;;;;;7.53;1.48;;;;;;;9.67;100.00;95179.28;5038299;28;20123;-73
2023/04/02 09:56:35;;;;;;;3.35;1.40;;;;;;;9.72;100.00;95179.22;5047401;28;20033;-72
2023/04/02 09:59:12;;;;;;;8.60;1.80;;;;;;;9.32;100.00;95186.25;5032986;28;20121;-72
2023/04/02 10:01:41;;;;;;;2.50;1.25;;;;;;;9.52;100.00;95186.19;5032452;28;20097;-72
2023/04/02 10:04:35;;;;;;;3.00;1.38;;;;;;;10.05;100.00;95192.69;5032453;28;20058;-73
2023/04/02 10:07:01;;;;;;;3.65;1.20;;;;;;;10.06;100.00;95186.41;5031043;28;20041;-73
2023/04/02 10:09:35;;;;;;;3.88;1.52;;;;;;;10.04;100.00;95191.13;5037508;28;20045;-73
2023/04/02 10:12:03;;;;;;;1.30;1.00;;;;;;;9.83;100.00;95191.25;5037206;28;20417;-73
2023/04/02 10:14:37;;;;;;;4.00;1.00;;;;;;;9.65;100.00;95189.25;5033310;28;20070;-73
2023/04/02 10:17:13;;;;;;;4.13;1.33;;;;;;;9.66;100.00;95196.09;5035389;28;20041;-73
2023/04/02 10:19:43;;;;;;;2.35;1.15;;;;;;;9.43;100.00;95193.03;5033812;28;20146;-73
2023/04/02 10:22:16;;;;;;;4.05;1.15;;;;;;;9.70;100.00;95197.91;5035778;28;20082;-73
2023/04/02 10:24:42;;;;;;;3.78;1.25;;;;;;;9.74;100.00;95203.41;5043835;28;20061;-73
2023/04/02 10:27:32;;;;;;;5.03;1.27;;;;;;;9.72;100.00;95197.63;5043097;28;20492;-73
2023/04/02 10:30:23;;;;;;;3.15;1.42;;;;;;;9.60;100.00;95197.19;5037533;28;20045;-73
2023/04/02 10:33:16;;;;;;;3.13;1.30;;;;;;;9.66;100.00;95194.25;5030495;28;20064;-73
2023/04/02 10:35:55;;;;;;;3.47;1.58;;;;;;;9.54;100.00;95202.44;5030356;28;20034;-73
2023/04/02 10:38:41;;;;;;;2.15;1.42;;;;;;;9.57;100.00;95200.31;5034858;28;20042;-72
2023/04/02 10:41:32;;;;;;;3.85;1.38;;;;;;;9.73;100.00;95201.84;5035039;28;20509;-73
2023/04/02 10:44:27;;;;;;;2.08;1.23;;;;;;;9.93;100.00;95192.25;5031555;28;20091;-73
2023/04/02 10:47:21;;;;;;;4.05;1.70;;;;;;;10.12;100.00;95198.44;5030904;28;20037;-73
2023/04/02 10:50:06;;;;;;;4.07;1.55;;;;;;;10.33;100.00;95199.09;5040081;28;20075;-73
2023/04/02 10:52:38;;;;;;;3.20;1.33;;;;;;;10.96;100.00;95199.34;5031111;28;20047;-73
2023/04/02 10:55:15;;;;;;;3.28;1.50;;;;;;;11.26;100.00;95209.56;5030781;28;20476;-73
2023/04/02 10:57:42;;;;;;;2.33;1.42;;;;;;;11.29;100.00;95204.81;5043742;28;20093;-73
2023/04/02 11:00:17;;;;;;;2.28;1.40;;;;;;;11.74;100.00;95202.69;5030268;28;20044;-72
2023/04/02 11:02:52;;;;;;;1.45;1.13;;;;;;;11.71;100.00;95203.22;5039938;28;20065;-73
2023/04/02 11:05:30;;;;;;;6.63;1.30;;;;;;;11.51;99.90;95205.06;5034232;28;20044;-73
2023/04/02 11:08:14;;;;;;;4.05;1.60;;;;;;;12.00;94.25;95210.28;5030429;28;20045;-73
2023/04/02 11:10:46;;;;;;;2.22;1.10;;;;;;;12.72;85.59;95206.56;5039428;28;20041;-73
2023/04/02 11:13:35;;;;;;;3.75;1.45;;;;;;;13.09;87.32;95191.66;5036538;28;20117;-73
2023/04/02 11:16:02;;;;;;;2.40;1.17;;;;;;;13.45;79.15;95198.91;5035948;28;20053;-73
2023/04/02 11:18:36;;;;;;;2.22;1.20;;;;;;;12.71;80.42;95200.47;5030056;28;20053;-73
2023/04/02 11:21:27;;;;;;;3.05;1.20;;;;;;;12.26;86.97;95208.06;5042442;28;20567;-73
2023/04/02 11:23:58;;;;;;;3.28;1.23;;;;;;;12.37;93.37;95208.66;5039674;28;20043;-73
2023/04/02 11:26:41;;;;;;;1.90;1.30;;;;;;;12.61;86.88;95209.38;5033308;28;20095;-73
2023/04/02 11:29:13;;;;;;;3.20;1.38;;;;;;;12.37;86.94;95219.22;5039871;28;20103;-73
2023/04/02 11:31:40;;;;;;;4.10;1.30;;;;;;;11.93;91.03;95216.69;5040597;28;20041;-73
2023/04/02 11:34:11;;;;;;;2.53;1.38;;;;;;;11.63;95.37;95223.09;5049771;28;20049;-73
2023/04/02 11:36:49;;;;;;;4.65;1.30;;;;;;;11.32;97.14;95217.41;5035663;28;20041;-73
2023/04/02 11:39:45;;;;;;;2.70;1.38;;;;;;;10.96;100.00;95225.69;5037441;28;20358;-73
2023/04/02 11:42:16;;;;;;;5.00;1.65;;;;;;;11.07;100.00;95221.88;5040864;28;20045;-73
2023/04/02 11:44:42;;;;;;;3.67;2.10;;;;;;;11.22;100.00;95227.00;5034184;28;20041;-73
2023/04/02 11:47:21;;;;;;;3.17;1.65;;;;;;;11.16;100.00;95229.97;5033215;28;20048;-73
2023/04/02 11:50:04;;;;;;;2.58;1.30;;;;;;;11.16;100.00;95241.28;5047200;28;20046;-73
2023/04/02 11:52:35;;;;;;;3.50;1.70;;;;;;;11.40;100.00;95237.88;5038401;28;20050;-73
2023/04/02 11:55:16;;;;;;;6.25;2.53;;;;;;;11.58;100.00;95245.03;5046906;28;20106;-73
2023/04/02 11:57:50;;;;;;;3.85;1.67;;;;;;;11.68;100.00;95236.22;5033837;28;20046;-72
2023/04/02 12:00:47;;;;;;;5.38;2.00;;;;;;;11.73;100.00;95243.28;5038610;28;20049;-72
2023/04/02 12:03:42;;;;;;;4.15;2.00;;;;;;;11.29;100.00;95239.03;5042330;28;20099;-73
2023/04/02 12:06:24;;;;;;;5.25;2.13;;;;;;;10.80;100.00;95240.84;5037576;28;20045;-74
2023/04/02 12:09:13;;;;;;;4.60;2.30;;;;;;;11.17;100.00;95237.56;5044383;28;20573;-75
2023/04/02 12:11:40;;;;;;;6.75;2.58;;;;;;;11.63;100.00;95243.41;5023520;28;20095;-75